Oakwood, Oklahoma
Current Conditions -  °F | °C
As of 7:15 PM on Tuesday 21 Oct 2014 (Local Time) from KJWG Reporting Station
Clear Clear  
Wind Chill: 22°   Ceiling: Unl
Heat Index: 22°   Visibility: 10mi
Dew Point: 15°   Wind: 3mph
Humidity: 65%   Direction: 150°SSE
Pressure: 30.04"   Gusts: NA
Location:  35.93°N, 98.71°W
Report Text: KJWG 220015Z AUTO 15003KT 10SM CLR 22/15 A3004 RMK AO2 T02210153
Loading
Personal Weather Stations






























Interactive Weather Map
Tropical Storm Tracking
New forecast layout! Learn more

10-Day Weather Forecast

Advertisements
Track Severe Weather on mobile